createdAt,value
2023-04-11T00:06:33.980Z,3.28
2023-04-11T00:13:19.654Z,2.17
2023-04-11T00:20:07.821Z,2.65
2023-04-11T00:26:50.387Z,3.15
2023-04-11T00:33:33.747Z,2.90
2023-04-11T00:40:18.245Z,2.92
2023-04-11T00:47:02.744Z,2.50
2023-04-11T00:53:45.818Z,4.47
2023-04-11T01:00:29.003Z,2.35
2023-04-11T01:07:13.911Z,3.78
2023-04-11T01:13:56.481Z,2.35
2023-04-11T01:20:39.606Z,2.30
2023-04-11T01:27:22.025Z,2.17
2023-04-11T01:34:05.374Z,1.95
2023-04-11T01:40:47.952Z,2.92
2023-04-11T01:47:30.374Z,2.03
2023-04-11T01:54:12.726Z,2.60
2023-04-11T02:00:55.022Z,1.85
2023-04-11T02:07:38.512Z,3.33
2023-04-11T02:14:20.943Z,2.75
2023-04-11T02:21:04.595Z,1.92
2023-04-11T02:27:46.918Z,3.22
2023-04-11T02:34:29.264Z,3.45
2023-04-11T02:41:11.562Z,2.15
2023-04-11T02:47:53.909Z,1.30
2023-04-11T02:54:36.461Z,2.05
2023-04-11T03:01:21.492Z,2.97
2023-04-11T03:08:03.931Z,2.25
2023-04-11T03:14:48.028Z,3.50
2023-04-11T03:21:31.458Z,2.33
2023-04-11T03:28:15.181Z,2.72
2023-04-11T03:35:01.884Z,3.28
2023-04-11T03:41:44.528Z,3.50
2023-04-11T03:48:29.808Z,2.40
2023-04-11T03:55:20.403Z,2.95
2023-04-11T04:02:03.262Z,4.15
2023-04-11T04:08:47.301Z,4.25
2023-04-11T04:15:30.649Z,4.22
2023-04-11T04:22:13.226Z,4.47
2023-04-11T04:29:04.713Z,2.63
2023-04-11T04:36:02.189Z,4.90
2023-04-11T04:42:49.911Z,3.47
2023-04-11T04:49:32.687Z,3.53
2023-04-11T04:56:16.385Z,2.28
2023-04-11T05:03:05.535Z,2.28
2023-04-11T05:09:48.542Z,1.55
2023-04-11T05:16:38.584Z,2.75
2023-04-11T05:23:21.202Z,2.28
2023-04-11T05:30:06.243Z,2.45
2023-04-11T05:36:52.751Z,3.33
2023-04-11T05:43:36.271Z,2.08
2023-04-11T05:50:18.915Z,2.60
2023-04-11T05:57:06.239Z,3.03
2023-04-11T06:03:48.751Z,3.33
2023-04-11T06:10:31.530Z,3.03
2023-04-11T06:17:13.846Z,3.05
2023-04-11T06:23:56.769Z,4.20
2023-04-11T06:30:39.275Z,3.00
2023-04-11T06:37:22.977Z,2.72
2023-04-11T06:44:05.591Z,2.92
2023-04-11T06:50:48.549Z,2.47
2023-04-11T06:57:31.210Z,2.85
2023-04-11T07:04:13.603Z,3.00
2023-04-11T07:10:55.905Z,3.50
2023-04-11T07:17:38.294Z,3.97
2023-04-11T07:24:20.963Z,2.25
2023-04-11T07:31:10.272Z,2.75
2023-04-11T07:37:53.589Z,4.53
2023-04-11T07:44:36.043Z,3.70
2023-04-11T07:51:18.750Z,5.65
2023-04-11T07:58:01.044Z,5.72
2023-04-11T08:04:43.622Z,3.65
2023-04-11T08:11:26.184Z,6.28
2023-04-11T08:18:08.942Z,7.35
2023-04-11T08:24:54.364Z,5.72
2023-04-11T08:31:37.483Z,4.70
2023-04-11T08:38:20.434Z,5.25
2023-04-11T08:45:08.180Z,7.47
2023-04-11T08:51:53.871Z,7.97
2023-04-11T08:58:36.351Z,2.17
2023-04-11T09:05:33.131Z,6.88
2023-04-11T09:12:15.798Z,8.57
2023-04-11T09:18:58.344Z,5.07
2023-04-11T09:25:44.697Z,4.25
2023-04-11T09:32:34.796Z,4.45
2023-04-11T09:39:20.441Z,4.75
2023-04-11T09:46:18.221Z,6.05
2023-04-11T09:53:01.226Z,4.57
2023-04-11T09:59:44.756Z,4.75
2023-04-11T10:07:02.061Z,6.60
2023-04-11T10:13:45.836Z,4.22
2023-04-11T10:20:49.556Z,3.78
2023-04-11T10:27:49.134Z,6.93
2023-04-11T10:34:31.779Z,4.88
2023-04-11T10:41:34.827Z,2.58
2023-04-11T10:48:18.148Z,5.57
2023-04-11T10:55:16.931Z,4.57
2023-04-11T11:02:01.360Z,4.95
2023-04-11T11:08:46.504Z,5.60
2023-04-11T11:15:29.586Z,5.15
2023-04-11T11:22:16.097Z,6.75
2023-04-11T11:28:59.654Z,5.63
2023-04-11T11:35:44.838Z,12.23
2023-04-11T11:42:27.887Z,4.00
2023-04-11T11:49:10.440Z,6.35
2023-04-11T11:55:53.558Z,6.75
2023-04-11T12:02:36.423Z,3.67
2023-04-11T12:09:18.796Z,5.25
2023-04-11T12:16:01.616Z,3.60
2023-04-11T12:22:44.068Z,5.10
2023-04-11T12:29:26.683Z,5.82
2023-04-11T12:36:09.506Z,5.57
2023-04-11T12:42:56.458Z,7.97
2023-04-11T12:49:40.287Z,3.15
2023-04-11T12:56:22.597Z,4.95
2023-04-11T13:03:05.394Z,3.92
2023-04-11T13:09:49.313Z,3.58
2023-04-11T13:16:32.331Z,6.68
2023-04-11T13:23:17.243Z,6.50
2023-04-11T13:29:59.930Z,5.15
2023-04-11T13:36:42.986Z,4.68
2023-04-11T13:43:25.393Z,2.83
2023-04-11T13:50:09.071Z,3.25
2023-04-11T13:56:51.380Z,2.20
2023-04-11T14:03:34.117Z,3.58
2023-04-11T14:10:16.570Z,3.75
2023-04-11T14:16:58.931Z,3.40
2023-04-11T14:23:41.362Z,4.50
2023-04-11T14:30:23.689Z,2.85
2023-04-11T14:37:06.628Z,3.50
2023-04-11T14:43:48.995Z,6.93
2023-04-11T14:50:31.474Z,5.18
2023-04-11T14:57:13.994Z,3.80
2023-04-11T15:03:56.860Z,4.80
2023-04-11T15:10:39.466Z,5.47
2023-04-11T15:17:22.009Z,4.55
2023-04-11T15:24:07.551Z,3.97
2023-04-11T15:30:51.927Z,4.50
2023-04-11T15:37:34.237Z,3.70
2023-04-11T15:44:16.535Z,3.40
2023-04-11T15:50:59.086Z,6.53
2023-04-11T15:57:41.561Z,8.00
2023-04-11T16:04:23.995Z,4.80
2023-04-11T16:11:06.703Z,5.55
2023-04-11T16:17:49.118Z,6.80
2023-04-11T16:24:31.655Z,3.83
2023-04-11T16:31:21.343Z,5.65
2023-04-11T16:38:04.200Z,5.85
2023-04-11T16:44:46.503Z,4.78
2023-04-11T16:51:28.864Z,3.88
2023-04-11T16:58:11.750Z,3.20
2023-04-11T17:04:54.035Z,9.63
2023-04-11T17:11:39.549Z,5.97
2023-04-11T17:18:21.808Z,5.57
2023-04-11T17:25:04.466Z,5.22
2023-04-11T17:31:46.822Z,3.55
2023-04-11T17:38:29.300Z,5.75
2023-04-11T17:45:17.246Z,4.93
2023-04-11T17:52:01.267Z,6.88
2023-04-11T17:58:45.157Z,4.15
2023-04-11T18:05:30.956Z,6.88
2023-04-11T18:12:13.733Z,8.77
2023-04-11T18:18:58.528Z,7.18
2023-04-11T18:25:40.867Z,7.93
2023-04-11T18:32:26.981Z,3.58
2023-04-11T18:39:11.145Z,6.30
2023-04-11T18:45:53.493Z,6.30
2023-04-11T18:52:36.055Z,7.07
2023-04-11T18:59:24.193Z,5.75
2023-04-11T19:06:07.683Z,4.88
2023-04-11T19:12:50.377Z,5.90
2023-04-11T19:19:32.946Z,9.63
2023-04-11T19:26:16.172Z,7.78
2023-04-11T19:32:59.029Z,6.10
2023-04-11T19:39:41.406Z,10.55
2023-04-11T19:46:23.824Z,8.25
2023-04-11T19:53:06.398Z,6.22
2023-04-11T19:59:48.811Z,7.13
2023-04-11T20:06:34.697Z,8.40
2023-04-11T20:13:17.132Z,7.72
2023-04-11T20:19:59.554Z,4.38
2023-04-11T20:26:41.854Z,7.25
2023-04-11T20:33:24.594Z,5.45
2023-04-11T20:40:08.479Z,8.73
2023-04-11T20:46:51.094Z,7.63
2023-04-11T20:53:33.607Z,7.90
2023-04-11T21:00:19.733Z,7.85
2023-04-11T21:07:02.247Z,13.88
2023-04-11T21:13:44.621Z,8.45
2023-04-11T21:20:26.998Z,9.27
2023-04-11T21:27:09.394Z,16.40
2023-04-11T21:33:52.108Z,10.57
2023-04-11T21:40:34.589Z,11.55
2023-04-11T21:47:17.791Z,4.65
2023-04-11T21:54:00.123Z,8.15
2023-04-11T22:00:42.505Z,7.97
2023-04-11T22:07:24.862Z,9.05
2023-04-11T22:14:08.095Z,6.40
2023-04-11T22:20:50.692Z,7.80
2023-04-11T22:27:34.284Z,6.30
2023-04-11T22:34:16.984Z,6.32
2023-04-11T22:40:59.209Z,7.72
2023-04-11T22:47:45.628Z,6.28
2023-04-11T22:54:28.729Z,11.43
2023-04-11T23:01:13.711Z,8.57
2023-04-11T23:07:56.140Z,8.85
2023-04-11T23:14:38.439Z,7.68
2023-04-11T23:21:20.814Z,7.75
2023-04-11T23:28:06.282Z,11.32
2023-04-11T23:34:48.610Z,7.55
2023-04-11T23:41:31.546Z,7.47
2023-04-11T23:48:13.819Z,5.13
2023-04-11T23:54:56.808Z,12.25
